createdAt,value
2022-08-11T00:02:00.166Z,46.91
2022-08-11T00:04:27.742Z,47.00
2022-08-11T00:06:55.002Z,46.85
2022-08-11T00:09:31.617Z,46.97
2022-08-11T00:12:13.986Z,46.85
2022-08-11T00:14:40.997Z,46.97
2022-08-11T00:17:15.818Z,47.14
2022-08-11T00:20:13.298Z,47.04
2022-08-11T00:22:34.761Z,47.20
2022-08-11T00:25:10.200Z,47.17
2022-08-11T00:27:39.536Z,47.34
2022-08-11T00:30:08.377Z,47.21
2022-08-11T00:32:37.574Z,47.34
2022-08-11T00:35:54.097Z,47.44
2022-08-11T00:37:56.929Z,47.44
2022-08-11T00:40:32.883Z,47.28
2022-08-11T00:43:23.886Z,47.15
2022-08-11T00:46:20.653Z,47.36
2022-08-11T00:49:13.959Z,47.52
2022-08-11T00:52:34.424Z,47.36
2022-08-11T00:55:26.433Z,47.61
2022-08-11T00:58:48.346Z,47.50
2022-08-11T01:01:17.677Z,47.87
2022-08-11T01:04:02.911Z,47.99
2022-08-11T01:06:51.884Z,48.01
2022-08-11T01:09:54.832Z,47.89
2022-08-11T01:12:36.335Z,48.30
2022-08-11T01:15:24.529Z,48.13
2022-08-11T01:17:57.090Z,48.25
2022-08-11T01:20:49.405Z,48.27
2022-08-11T01:23:41.181Z,48.27
2022-08-11T01:27:02.796Z,48.32
2022-08-11T01:30:06.703Z,48.34
2022-08-11T01:32:45.134Z,48.46
2022-08-11T01:35:42.494Z,48.62
2022-08-11T01:38:29.305Z,48.50
2022-08-11T01:41:25.355Z,48.66
2022-08-11T01:44:29.431Z,48.79
2022-08-11T01:47:53.212Z,48.70
2022-08-11T01:51:04.035Z,48.70
2022-08-11T01:53:33.671Z,49.25
2022-08-11T01:56:16.931Z,49.26
2022-08-11T01:59:08.266Z,49.05
2022-08-11T02:02:04.237Z,48.93
2022-08-11T02:04:42.227Z,49.22
2022-08-11T02:07:26.209Z,48.94
2022-08-11T02:10:35.280Z,49.10
2022-08-11T02:13:16.970Z,49.39
2022-08-11T02:16:08.163Z,49.27
2022-08-11T02:18:59.058Z,49.69
2022-08-11T02:21:57.031Z,49.60
2022-08-11T02:24:44.809Z,49.69
2022-08-11T02:27:38.619Z,49.53
2022-08-11T02:30:09.956Z,49.90
2022-08-11T02:33:09.074Z,49.72
2022-08-11T02:35:49.301Z,50.05
2022-08-11T02:38:30.838Z,49.75
2022-08-11T02:41:33.993Z,50.00
2022-08-11T02:44:16.401Z,49.98
2022-08-11T02:47:09.394Z,50.01
2022-08-11T02:50:06.192Z,50.00
2022-08-11T02:52:50.691Z,50.05
2022-08-11T02:55:56.461Z,50.20
2022-08-11T02:58:36.549Z,50.38
2022-08-11T03:01:23.332Z,50.16
2022-08-11T03:03:55.230Z,50.56
2022-08-11T03:06:35.694Z,50.33
2022-08-11T03:09:11.060Z,50.32
2022-08-11T03:12:14.604Z,50.38
2022-08-11T03:15:17.484Z,50.38
2022-08-11T03:18:16.400Z,50.48
2022-08-11T03:20:49.555Z,50.48
2022-08-11T03:23:47.356Z,50.42
2022-08-11T03:26:26.260Z,50.63
2022-08-11T03:29:10.593Z,50.58
2022-08-11T03:31:55.746Z,50.63
2022-08-11T03:34:26.004Z,50.62
2022-08-11T03:37:48.432Z,50.69
2022-08-11T03:40:55.718Z,50.92
2022-08-11T03:43:29.395Z,50.97
2022-08-11T03:46:06.502Z,51.13
2022-08-11T03:48:48.934Z,51.17
2022-08-11T03:51:25.031Z,51.08
2022-08-11T03:54:16.409Z,51.00
2022-08-11T03:57:09.250Z,51.48
2022-08-11T03:59:51.251Z,51.02
2022-08-11T04:02:50.574Z,51.24
2022-08-11T04:05:47.687Z,50.85
2022-08-11T04:08:51.805Z,50.91
2022-08-11T04:11:27.635Z,50.98
2022-08-11T04:14:44.913Z,51.51
2022-08-11T04:17:47.630Z,50.98
2022-08-11T04:20:43.424Z,51.54
2022-08-11T04:24:35.793Z,51.22
2022-08-11T04:26:57.673Z,51.42
2022-08-11T04:30:01.983Z,51.66
2022-08-11T04:32:55.220Z,51.67
2022-08-11T04:35:52.766Z,51.77
2022-08-11T04:38:48.994Z,51.79
2022-08-11T04:41:57.024Z,51.98
2022-08-11T04:44:35.331Z,51.96
2022-08-11T04:48:04.504Z,52.28
2022-08-11T04:51:20.483Z,52.20
2022-08-11T04:54:18.600Z,52.68
2022-08-11T04:57:06.452Z,52.81
2022-08-11T05:00:16.261Z,52.75
2022-08-11T05:03:27.670Z,52.62
2022-08-11T05:06:38.805Z,52.91
2022-08-11T05:09:20.514Z,53.29
2022-08-11T05:12:07.869Z,53.12
2022-08-11T05:14:59.564Z,53.48
2022-08-11T05:18:18.534Z,53.73
2022-08-11T05:21:15.532Z,53.46
2022-08-11T05:24:12.504Z,53.91
2022-08-11T05:27:04.653Z,54.01
2022-08-11T05:30:03.273Z,54.21
2022-08-11T05:33:00.891Z,54.05
2022-08-11T05:36:02.435Z,54.27
2022-08-11T05:38:51.402Z,54.58
2022-08-11T05:41:40.163Z,54.49
2022-08-11T05:44:25.505Z,54.39
2022-08-11T05:47:10.530Z,54.61
2022-08-11T05:49:58.183Z,54.60
2022-08-11T05:52:49.229Z,54.68
2022-08-11T05:56:03.130Z,54.53
2022-08-11T05:58:42.395Z,54.54
2022-08-11T06:01:13.543Z,54.92
2022-08-11T06:04:03.081Z,54.41
2022-08-11T06:06:30.486Z,54.32
2022-08-11T06:08:59.519Z,54.53
2022-08-11T06:11:43.190Z,54.38
2022-08-11T06:14:12.302Z,54.06
2022-08-11T06:16:42.049Z,54.03
2022-08-11T06:19:10.351Z,54.41
2022-08-11T06:21:37.877Z,54.81
2022-08-11T06:24:11.258Z,54.73
2022-08-11T06:27:01.225Z,54.64
2022-08-11T06:29:37.893Z,54.43
2022-08-11T06:32:14.531Z,54.81
2022-08-11T06:34:59.694Z,54.31
2022-08-11T06:38:23.480Z,54.51
2022-08-11T06:41:13.731Z,54.31
2022-08-11T06:44:05.962Z,54.66
2022-08-11T06:46:39.271Z,54.66
2022-08-11T06:49:28.147Z,54.63
2022-08-11T06:52:01.827Z,54.62
2022-08-11T06:54:35.254Z,54.55
2022-08-11T06:57:30.508Z,54.43
2022-08-11T07:00:17.324Z,54.47
2022-08-11T07:03:09.138Z,54.53
2022-08-11T07:06:11.104Z,54.43
2022-08-11T07:09:29.266Z,54.76
2022-08-11T07:12:26.585Z,54.88
2022-08-11T07:15:13.959Z,54.91
2022-08-11T07:18:09.613Z,54.73
2022-08-11T07:21:01.417Z,54.67
2022-08-11T07:23:52.963Z,54.71
2022-08-11T07:26:40.469Z,54.83
2022-08-11T07:29:09.836Z,55.25
2022-08-11T07:31:50.102Z,54.81
2022-08-11T07:34:22.605Z,54.77
2022-08-11T07:37:17.964Z,54.66
2022-08-11T07:39:46.596Z,54.62
2022-08-11T07:42:23.896Z,54.20
2022-08-11T07:45:11.104Z,54.41
2022-08-11T07:47:57.989Z,54.20
2022-08-11T07:50:43.985Z,54.04
2022-08-11T07:53:13.022Z,54.10
2022-08-11T07:55:51.483Z,53.99
2022-08-11T07:58:45.545Z,54.08
2022-08-11T08:01:45.929Z,53.64
2022-08-11T08:04:33.471Z,53.87
2022-08-11T08:07:22.052Z,53.78
2022-08-11T08:10:07.902Z,53.85
2022-08-11T08:12:54.352Z,54.13
2022-08-11T08:15:41.250Z,53.97
2022-08-11T08:18:26.751Z,53.78
2022-08-11T08:20:56.593Z,53.98
2022-08-11T08:23:35.321Z,53.66
2022-08-11T08:26:04.608Z,53.56
2022-08-11T08:28:33.528Z,53.69
2022-08-11T08:31:00.503Z,53.78
2022-08-11T08:33:30.350Z,53.35
2022-08-11T08:36:12.425Z,53.37
2022-08-11T08:38:41.571Z,53.08
2022-08-11T08:41:09.946Z,53.04
2022-08-11T08:43:49.047Z,52.97
2022-08-11T08:46:20.646Z,52.81
2022-08-11T08:48:49.112Z,52.56
2022-08-11T08:51:54.874Z,52.66
2022-08-11T08:54:29.015Z,52.66
2022-08-11T08:56:57.249Z,52.50
2022-08-11T08:59:27.366Z,52.02
2022-08-11T09:02:14.220Z,51.81
2022-08-11T09:04:44.551Z,51.41
2022-08-11T09:07:13.399Z,51.50
2022-08-11T09:09:51.953Z,51.33
2022-08-11T09:12:38.385Z,51.50
2022-08-11T09:15:09.155Z,51.20
2022-08-11T09:17:40.799Z,50.93
2022-08-11T09:20:21.485Z,50.75
2022-08-11T09:26:17.782Z,50.66
2022-08-11T09:28:45.743Z,50.56
2022-08-11T09:31:14.243Z,50.06
2022-08-11T09:33:42.906Z,49.96
2022-08-11T09:36:30.416Z,49.90
2022-08-11T09:39:16.625Z,50.10
2022-08-11T09:41:55.735Z,49.71
2022-08-11T09:44:49.397Z,49.42
2022-08-11T09:47:28.575Z,49.25
2022-08-11T09:50:00.147Z,48.47
2022-08-11T09:52:28.784Z,48.65
2022-08-11T09:54:55.615Z,48.51
2022-08-11T09:57:41.755Z,48.38
2022-08-11T10:00:13.593Z,48.48
2022-08-11T10:02:49.380Z,48.46
2022-08-11T10:05:37.774Z,48.39
2022-08-11T10:08:07.300Z,48.05
2022-08-11T10:10:38.922Z,47.98
2022-08-11T10:14:09.263Z,47.85
2022-08-11T10:16:16.271Z,47.88
2022-08-11T10:18:52.829Z,47.68
2022-08-11T10:21:28.942Z,47.59
2022-08-11T10:24:17.207Z,47.61
2022-08-11T10:26:52.295Z,47.32
2022-08-11T10:29:44.478Z,47.22
2022-08-11T10:32:49.369Z,47.06
2022-08-11T10:35:26.388Z,46.50
2022-08-11T10:38:05.747Z,46.16
2022-08-11T10:40:35.805Z,46.18
2022-08-11T10:43:03.618Z,46.46
2022-08-11T10:45:50.282Z,46.49
2022-08-11T10:48:21.073Z,46.36
2022-08-11T10:51:08.145Z,45.98
2022-08-11T10:53:54.898Z,45.86
2022-08-11T10:56:40.746Z,45.51
2022-08-11T10:59:09.264Z,45.27
2022-08-11T11:01:42.524Z,45.16
2022-08-11T11:04:21.208Z,45.22
2022-08-11T11:07:03.688Z,44.61
2022-08-11T11:09:33.099Z,44.63
2022-08-11T11:12:39.541Z,44.54
2022-08-11T11:15:25.734Z,44.70
2022-08-11T11:17:56.282Z,44.51
2022-08-11T11:20:37.022Z,44.66
2022-08-11T11:23:10.137Z,44.33
2022-08-11T11:26:06.487Z,44.25
2022-08-11T11:28:51.716Z,44.60
2022-08-11T11:31:50.993Z,44.16
2022-08-11T11:34:37.894Z,43.60
2022-08-11T11:37:20.849Z,44.44
2022-08-11T11:39:47.991Z,44.01
2022-08-11T11:42:16.509Z,43.69
2022-08-11T11:44:45.116Z,43.38
2022-08-11T11:47:13.203Z,43.64
2022-08-11T11:49:43.864Z,43.25
2022-08-11T11:52:21.033Z,43.21
2022-08-11T11:54:50.365Z,42.54
2022-08-11T11:57:36.996Z,42.58
2022-08-11T12:00:33.183Z,42.60
2022-08-11T12:03:03.158Z,42.55
2022-08-11T12:05:33.602Z,42.43
2022-08-11T12:08:16.038Z,42.44
2022-08-11T12:11:28.665Z,41.89
2022-08-11T12:13:58.519Z,42.47
2022-08-11T12:16:34.806Z,42.20
2022-08-11T12:19:06.053Z,42.43
2022-08-11T12:21:35.005Z,42.13
2022-08-11T12:24:21.008Z,42.26
2022-08-11T12:27:15.152Z,42.39
2022-08-11T12:29:35.474Z,41.68
2022-08-11T12:32:07.189Z,42.11
2022-08-11T12:34:33.855Z,42.03
2022-08-11T12:37:05.614Z,41.45
2022-08-11T12:40:16.573Z,41.49
2022-08-11T12:43:03.996Z,41.70
2022-08-11T12:45:38.567Z,41.45
2022-08-11T12:48:58.915Z,41.71
2022-08-11T12:52:13.120Z,42.09
2022-08-11T12:54:27.419Z,41.21
2022-08-11T12:57:24.118Z,41.30
2022-08-11T13:00:26.464Z,40.24
2022-08-11T13:03:13.666Z,40.25
2022-08-11T13:05:45.040Z,40.25
2022-08-11T13:08:15.319Z,40.03
2022-08-11T13:11:01.702Z,40.48
2022-08-11T13:13:53.762Z,40.08
2022-08-11T13:16:17.715Z,40.59
2022-08-11T13:18:45.060Z,40.68
2022-08-11T13:21:20.547Z,40.94
2022-08-11T13:23:59.679Z,40.00
2022-08-11T13:26:47.517Z,40.39
2022-08-11T13:29:26.242Z,40.25
2022-08-11T13:31:55.866Z,40.01
2022-08-11T13:34:25.268Z,39.67
2022-08-11T13:36:54.193Z,39.33
2022-08-11T13:39:24.620Z,39.57
2022-08-11T13:41:53.409Z,38.83
2022-08-11T13:44:25.535Z,38.94
2022-08-11T13:46:56.335Z,39.00
2022-08-11T13:49:24.223Z,38.81
2022-08-11T13:51:51.953Z,39.20
2022-08-11T13:54:22.611Z,39.24
2022-08-11T13:56:53.527Z,39.67
2022-08-11T13:59:22.922Z,39.70
2022-08-11T14:02:21.416Z,39.92
2022-08-11T14:04:55.865Z,39.91
2022-08-11T14:07:25.694Z,38.72
2022-08-11T14:09:59.772Z,38.98
2022-08-11T14:12:46.446Z,39.25
2022-08-11T14:15:27.646Z,38.63
2022-08-11T14:18:01.589Z,39.09
2022-08-11T14:20:50.845Z,39.16
2022-08-11T14:23:19.440Z,39.18
2022-08-11T14:26:15.622Z,38.87
2022-08-11T14:28:45.117Z,38.81
2022-08-11T14:31:16.080Z,38.83
2022-08-11T14:34:00.346Z,39.19
2022-08-11T14:36:35.223Z,39.10
2022-08-11T14:39:05.780Z,38.98
2022-08-11T14:42:07.620Z,39.54
2022-08-11T14:44:57.740Z,38.51
2022-08-11T14:47:25.891Z,38.91
2022-08-11T14:50:10.762Z,38.74
2022-08-11T14:52:44.739Z,37.79
2022-08-11T14:55:31.378Z,37.49
2022-08-11T14:57:58.887Z,37.03
2022-08-11T15:00:26.569Z,38.15
2022-08-11T15:03:13.511Z,38.11
2022-08-11T15:06:02.166Z,37.81
2022-08-11T15:08:50.482Z,37.77
2022-08-11T15:11:38.058Z,37.33
2022-08-11T15:14:07.531Z,37.57
2022-08-11T15:16:54.605Z,37.33
2022-08-11T15:19:21.597Z,37.15
2022-08-11T15:22:08.980Z,37.42
2022-08-11T15:24:36.566Z,37.72
2022-08-11T15:27:27.303Z,38.30
2022-08-11T15:30:29.923Z,38.26
2022-08-11T15:33:20.219Z,38.48
2022-08-11T15:36:05.672Z,38.35
2022-08-11T15:38:36.237Z,38.58
2022-08-11T15:41:24.071Z,38.60
2022-08-11T15:44:13.244Z,38.23
2022-08-11T15:46:44.617Z,38.25
2022-08-11T15:50:11.501Z,38.43
2022-08-11T15:52:21.234Z,38.82
2022-08-11T15:54:49.175Z,38.33
2022-08-11T15:57:40.083Z,38.03
2022-08-11T16:00:26.570Z,37.76
2022-08-11T16:02:55.087Z,38.18
2022-08-11T16:05:46.030Z,38.50
2022-08-11T16:08:13.223Z,37.83
2022-08-11T16:10:42.414Z,37.93
2022-08-11T16:13:13.335Z,37.79
2022-08-11T16:16:04.080Z,38.09
2022-08-11T16:18:43.432Z,38.59
2022-08-11T16:21:34.053Z,39.44
2022-08-11T16:24:06.117Z,38.51
2022-08-11T16:27:10.332Z,38.90
2022-08-11T16:29:25.308Z,39.40
2022-08-11T16:32:14.459Z,39.70
2022-08-11T16:35:02.279Z,39.56
2022-08-11T16:37:49.816Z,39.68
2022-08-11T16:40:17.583Z,39.63
2022-08-11T16:43:11.381Z,38.48
2022-08-11T16:45:58.687Z,38.76
2022-08-11T16:48:35.006Z,38.48
2022-08-11T16:51:03.855Z,38.29
2022-08-11T16:53:49.010Z,38.40
2022-08-11T16:56:24.740Z,38.11
2022-08-11T16:59:13.344Z,38.21
2022-08-11T17:01:41.971Z,37.38
2022-08-11T17:04:53.894Z,38.00
2022-08-11T17:07:43.202Z,37.23
2022-08-11T17:10:52.641Z,37.50
2022-08-11T17:13:27.916Z,37.15
2022-08-11T17:16:10.022Z,36.92
2022-08-11T17:18:57.749Z,36.21
2022-08-11T17:21:57.741Z,36.61
2022-08-11T17:24:27.533Z,37.24
2022-08-11T17:26:56.951Z,36.31
2022-08-11T17:29:53.827Z,35.93
2022-08-11T17:32:56.669Z,36.03
2022-08-11T17:35:34.133Z,36.37
2022-08-11T17:38:12.883Z,36.29
2022-08-11T17:41:01.685Z,35.16
2022-08-11T17:43:48.845Z,35.86
2022-08-11T17:46:37.590Z,35.81
2022-08-11T17:49:08.223Z,35.57
2022-08-11T17:51:56.016Z,35.82
2022-08-11T17:54:43.579Z,36.04
2022-08-11T17:57:30.423Z,35.75
2022-08-11T17:59:57.969Z,35.61
2022-08-11T18:02:51.691Z,36.08
2022-08-11T18:05:21.542Z,35.58
2022-08-11T18:08:10.197Z,35.95
2022-08-11T18:10:57.444Z,36.77
2022-08-11T18:13:43.666Z,35.84
2022-08-11T18:16:30.038Z,36.29
2022-08-11T18:19:15.796Z,36.58
2022-08-11T18:22:14.812Z,36.21
2022-08-11T18:25:12.426Z,36.39
2022-08-11T18:28:00.868Z,36.37
2022-08-11T18:30:49.936Z,36.58
2022-08-11T18:34:05.969Z,36.17
2022-08-11T18:36:49.452Z,36.60
2022-08-11T18:39:38.455Z,36.89
2022-08-11T18:42:29.592Z,36.91
2022-08-11T18:45:19.774Z,36.54
2022-08-11T18:48:09.271Z,36.96
2022-08-11T18:51:00.674Z,36.64
2022-08-11T18:54:09.248Z,37.16
2022-08-11T18:56:54.609Z,36.93
2022-08-11T18:59:44.300Z,37.37
2022-08-11T19:02:31.277Z,37.19
2022-08-11T19:05:18.828Z,37.06
2022-08-11T19:08:26.245Z,37.12
2022-08-11T19:11:14.249Z,37.45
2022-08-11T19:14:03.971Z,37.56
2022-08-11T19:16:51.127Z,37.99
2022-08-11T19:19:38.119Z,38.02
2022-08-11T19:22:23.981Z,37.60
2022-08-11T19:25:10.512Z,38.04
2022-08-11T19:27:58.197Z,38.05
2022-08-11T19:30:45.006Z,38.27
2022-08-11T19:34:03.092Z,38.31
2022-08-11T19:36:37.285Z,38.21
2022-08-11T19:39:23.088Z,38.50
2022-08-11T19:42:08.732Z,38.38
2022-08-11T19:44:54.064Z,38.49
2022-08-11T19:47:40.952Z,38.74
2022-08-11T19:50:27.212Z,38.85
2022-08-11T19:53:16.891Z,38.83
2022-08-11T19:56:05.432Z,39.07
2022-08-11T19:58:52.317Z,38.85
2022-08-11T20:01:37.952Z,38.77
2022-08-11T20:04:43.506Z,38.94
2022-08-11T20:07:32.288Z,39.23
2022-08-11T20:10:22.442Z,39.34
2022-08-11T20:13:08.841Z,39.14
2022-08-11T20:15:57.707Z,39.45
2022-08-11T20:18:44.653Z,39.53
2022-08-11T20:21:33.501Z,39.37
2022-08-11T20:24:20.757Z,39.51
2022-08-11T20:27:07.347Z,39.63
2022-08-11T20:30:07.239Z,39.92
2022-08-11T20:32:54.441Z,39.62
2022-08-11T20:35:40.210Z,40.09
2022-08-11T20:38:28.098Z,40.11
2022-08-11T20:41:16.269Z,40.07
2022-08-11T20:44:05.660Z,40.21
2022-08-11T20:46:58.229Z,39.91
2022-08-11T20:49:53.834Z,39.96
2022-08-11T20:52:49.783Z,39.71
2022-08-11T20:55:52.142Z,40.09
2022-08-11T21:01:52.114Z,40.43
2022-08-11T21:04:54.355Z,40.13
2022-08-11T21:07:55.619Z,40.53
2022-08-11T21:10:51.140Z,40.21
2022-08-11T21:13:41.395Z,40.66
2022-08-11T21:16:31.763Z,40.35
2022-08-11T21:19:59.688Z,40.54
2022-08-11T21:22:58.565Z,40.74
2022-08-11T21:25:48.088Z,41.05
2022-08-11T21:28:36.878Z,41.35
2022-08-11T21:31:24.928Z,40.86
2022-08-11T21:34:11.008Z,40.85
2022-08-11T21:36:58.755Z,40.65
2022-08-11T21:39:46.054Z,40.99
2022-08-11T21:42:32.127Z,41.00
2022-08-11T21:45:18.992Z,41.20
2022-08-11T21:48:04.925Z,41.14
2022-08-11T21:50:50.004Z,41.11
2022-08-11T21:53:36.457Z,41.20
2022-08-11T21:56:22.630Z,41.19
2022-08-11T21:59:14.803Z,41.57
2022-08-11T22:02:00.734Z,41.48
2022-08-11T22:04:46.545Z,41.49
2022-08-11T22:07:31.826Z,41.47
2022-08-11T22:10:40.783Z,41.76
2022-08-11T22:13:30.516Z,41.89
2022-08-11T22:16:19.158Z,41.93
2022-08-11T22:19:10.519Z,42.21
2022-08-11T22:22:03.593Z,42.04
2022-08-11T22:24:51.265Z,42.03
2022-08-11T22:27:36.550Z,42.06
2022-08-11T22:30:23.345Z,42.27
2022-08-11T22:33:09.049Z,42.08
2022-08-11T22:35:54.283Z,42.10
2022-08-11T22:38:40.448Z,42.16
2022-08-11T22:41:25.535Z,42.12
2022-08-11T22:44:10.585Z,42.33
2022-08-11T22:46:55.712Z,42.61
2022-08-11T22:49:57.061Z,42.32
2022-08-11T22:52:43.892Z,42.74
2022-08-11T22:55:29.217Z,42.66
2022-08-11T22:58:14.708Z,42.69
2022-08-11T23:01:00.495Z,42.79
2022-08-11T23:03:46.007Z,42.85
2022-08-11T23:06:32.913Z,42.82
2022-08-11T23:09:19.421Z,42.91
2022-08-11T23:12:06.672Z,43.00
2022-08-11T23:14:57.544Z,43.05
2022-08-11T23:17:43.582Z,43.29
2022-08-11T23:20:39.105Z,43.25
2022-08-11T23:23:27.054Z,43.26
2022-08-11T23:26:14.270Z,43.27
2022-08-11T23:29:05.059Z,43.39
2022-08-11T23:31:53.375Z,43.52
2022-08-11T23:35:37.343Z,43.65
2022-08-11T23:37:48.684Z,43.73
2022-08-11T23:40:34.144Z,43.65
2022-08-11T23:43:19.966Z,43.92
2022-08-11T23:46:04.929Z,43.89
2022-08-11T23:48:50.791Z,43.98
2022-08-11T23:51:40.793Z,44.08
2022-08-11T23:54:27.365Z,43.88
2022-08-11T23:57:13.232Z,43.94
2022-08-11T23:59:58.077Z,44.16
